Latest Weather Observations for Paraburdoo

IDW60801

Issued at 12:02 pm WST Thursday 3 September 2015 (issued every 30 minutes, with the page automatically refreshed every 10 minutes)

About weather observations | Map of weather stations | Latest weather observations for WA | Other Formats
Station Details ID: 007185 Name: PARABURDOO AERO Lat: -23.17 Lon: 117.75 Height: 423.7 m
Data from the previous 72 hours. | See also: Recent months at Paraburdoo
Date/Time
WST
Temp
°C
App
Temp
°C
Dew
Point
Rel
Hum
%
Delta-T
°C
Wind Press
QNH
hPa
Press
MSL
hPa
Rain
since 9 am
mm
Dir
 
Spd
km/h
Gust
km/h
Spd
kts
Gust
kts
03/12:00pm 26.7 21.3 1.2 19 12.4 NNE 19 33 10 18 1019.1 1017.2 0.0
03/11:30am 26.4 22.2 1.7 20 12.1 N 13 22 7 12 1019.4 1017.5 0.0
03/11:00am 25.4 20.9 2.2 22 11.4 NE 15 26 8 14 1019.7 1017.8 0.0
03/10:30am 24.6 19.4 2.7 24 10.8 NE 19 28 10 15 1020.2 1018.3 0.0
03/10:00am 24.2 19.8 2.9 25 10.5 ENE 15 22 8 12 1020.3 1018.5 0.0
03/09:30am 23.3 19.0 3.3 27 9.9 ENE 15 19 8 10 1020.3 1018.5 0.0
03/09:00am 22.1 17.7 2.8 28 9.3 NE 15 22 8 12 1020.2 1018.3 0.0
03/08:30am 20.2 15.5 3.0 32 8.3 NE 17 20 9 11 1020.1 1018.2 0.0
03/08:00am 18.2 13.5 2.9 36 7.2 NE 17 22 9 12 1019.9 1018.0 0.0
03/07:30am 16.6 12.1 2.2 38 6.6 NE 15 20 8 11 1019.7 1017.8 0.0
03/07:00am 14.6 10.9 2.2 43 5.6 NE 11 15 6 8 1019.3 1017.4 0.0
03/06:30am 12.5 8.7 1.8 48 4.7 NE 11 13 6 7 1019.1 1017.2 0.0
03/06:00am 11.9 7.7 1.8 50 4.4 NE 13 13 7 7 1018.9 1017.0 0.0
03/05:30am 12.2 8.0 1.8 49 4.6 NE 13 15 7 8 1018.8 1016.9 0.0
03/05:00am 12.8 8.3 2.4 49 4.6 NE 15 17 8 9 1018.6 1016.7 0.0
03/04:30am 11.2 6.9 0.9 49 4.4 NE 13 17 7 9 1018.3 1016.5 0.0
03/04:00am 11.0 7.0 0.4 48 4.4 NE 11 13 6 7 1018.0 1016.1 0.0
03/03:30am 11.3 7.2 0.1 46 4.7 NE 11 11 6 6 1017.9 1016.0 0.0
03/03:00am 11.7 7.2 -0.1 44 4.9 NE 13 15 7 8 1018.0 1016.1 0.0
03/02:30am 12.5 8.7 -0.4 41 5.4 ENE 9 9 5 5 1018.1 1016.2 0.0
03/02:00am 12.9 9.2 0.0 41 5.5 ENE 9 9 5 5 1018.3 1016.5 0.0
03/01:30am 13.3 9.6 -0.3 39 5.8 ENE 9 11 5 6 1018.4 1016.6 0.0
03/01:00am 13.2 11.1 -0.8 38 5.8 CALM 0 0 0 0 1018.7 1016.8 0.0
03/12:30am 14.8 12.8 -0.1 36 6.4 CALM 0 0 0 0 1019.0 1017.1 0.0
03/12:00am 17.2 13.9 -0.1 31 7.6 WSW 7 11 4 6 1019.0 1017.1 0.0
 
Date/Time
WST
Temp
°C
App
Temp
°C
Dew
Point
Rel
Hum
%
Delta-T
°C
Wind Press
QNH
hPa
Press
MSL
hPa
Rain
since 9 am
mm
Dir
 
Spd
km/h
Gust
km/h
Spd
kts
Gust
kts
02/11:30pm 17.2 13.4 -1.0 29 7.9 W 9 13 5 7 1019.0 1017.1 0.0
02/11:00pm 16.4 11.9 -0.3 32 7.3 NNE 13 15 7 8 1018.7 1016.8 0.0
02/10:30pm 17.7 13.6 -0.1 30 7.9 NNE 11 15 6 8 1018.8 1016.9 0.0
02/10:00pm 17.9 13.0 -0.4 29 8.0 NE 15 17 8 9 1018.7 1016.8 0.0
02/09:30pm 18.7 14.2 -0.2 28 8.4 NE 13 15 7 8 1018.9 1017.0 0.0
02/09:00pm 18.2 14.5 -0.1 29 8.1 NE 9 11 5 6 1019.0 1017.1 0.0
02/08:30pm 18.0 14.2 -0.8 28 8.2 ENE 9 11 5 6 1018.8 1016.9 0.0
02/08:00pm 20.3 17.4 -0.9 24 9.4 S 4 7 2 4 1018.6 1016.7 0.0
02/07:30pm 20.4 16.5 -1.4 23 9.6 S 9 13 5 7 1018.0 1016.1 0.0
02/07:00pm 21.7 17.9 -0.9 22 10.2 S 9 11 5 6 1017.6 1015.7 0.0
02/06:30pm 23.4 19.5 -1.5 19 11.2 S 9 13 5 7 1017.1 1015.2 0.0
02/06:00pm 24.9 19.8 -1.8 17 12.1 SW 15 20 8 11 1016.6 1014.7 0.0
02/05:30pm 26.0 20.6 -1.7 16 12.7 WSW 17 24 9 13 1016.2 1014.3 0.0
02/05:00pm 26.8 21.8 -1.1 16 13.0 SSW 15 24 8 13 1015.7 1013.8 0.0
02/04:30pm 27.2 22.5 -1.7 15 13.4 SSW 13 22 7 12 1015.4 1013.5 0.0
02/04:00pm 27.1 22.4 -1.7 15 13.3 SW 13 26 7 14 1015.4 1013.5 0.0
02/03:30pm 27.5 22.9 -1.4 15 13.5 S 13 22 7 12 1015.4 1013.5 0.0
02/03:00pm 26.4 22.6 -0.6 17 12.7 S 9 15 5 8 1015.7 1013.8 0.0
02/02:30pm 26.2 22.4 -0.8 17 12.6 WSW 9 19 5 10 1015.9 1014.0 0.0
02/02:00pm 26.7 22.2 -0.3 17 12.8 WSW 13 24 7 13 1016.4 1014.5 0.0
02/01:30pm 25.8 21.7 -0.3 18 12.3 WNW 11 17 6 9 1017.0 1015.1 0.0
02/01:00pm 25.3 21.6 0.0 19 11.9 WSW 9 13 5 7 1017.4 1015.5 0.0
02/12:30pm 24.5 20.4 0.1 20 11.4 E 11 17 6 9 1018.0 1016.1 0.0
02/12:00pm 23.9 19.9 0.3 21 11.0 NE 11 17 6 9 1018.6 1016.7 0.0
02/11:30am 22.9 18.5 0.1 22 10.6 ENE 13 20 7 11 1019.2 1017.3 0.0
02/11:00am 22.7 17.6 0.5 23 10.3 NE 17 24 9 13 1019.5 1017.6 0.0
02/10:30am 20.6 15.4 -0.1 25 9.4 E 17 24 9 13 1019.7 1017.8 0.0
02/10:00am 20.3 15.9 0.2 26 9.1 E 13 22 7 12 1019.9 1018.0 0.0
02/09:30am 18.9 13.3 0.0 28 8.5 ENE 19 28 10 15 1019.9 1018.0 0.0
02/09:00am 17.8 12.1 -0.5 29 8.0 ENE 19 28 10 15 1019.8 1017.9 0.0
02/08:30am 16.9 11.3 -0.3 31 7.5 E 19 26 10 14 1019.7 1017.8 0.0
02/08:00am 15.6 9.9 -1.0 32 7.1 E 19 24 10 13 1019.6 1017.7 0.0
02/07:30am 15.1 10.2 -0.2 35 6.6 E 15 19 8 10 1019.4 1017.5 0.0
02/07:00am 13.4 9.2 -0.6 38 5.9 E 11 15 6 8 1019.1 1017.2 0.0
02/06:30am 11.9 7.7 -0.9 41 5.3 E 11 17 6 9 1018.8 1016.9 0.0
02/06:00am 11.9 8.0 -1.3 40 5.4 ENE 9 13 5 7 1018.4 1016.6 0.0
02/05:30am 12.8 8.2 -1.1 38 5.7 E 13 20 7 11 1018.3 1016.5 0.0
02/05:00am 13.2 8.2 -1.2 37 6.0 E 15 20 8 11 1018.2 1016.4 0.0
02/04:30am 13.6 9.0 -1.2 36 6.2 E 13 24 7 13 1018.2 1016.4 0.0
02/04:00am 14.0 8.6 -1.2 35 6.3 E 17 26 9 14 1018.2 1016.4 0.0
02/03:30am 13.7 9.1 -1.1 36 6.2 E 13 20 7 11 1018.3 1016.5 0.0
02/03:00am 13.6 9.0 -1.2 36 6.1 ESE 13 17 7 9 1018.3 1016.5 0.0
02/02:30am 14.7 9.7 -1.0 34 6.6 E 15 20 8 11 1018.4 1016.6 0.0
02/02:00am 13.3 9.0 -1.4 36 6.1 E 11 15 6 8 1018.3 1016.5 0.0
02/01:30am 13.5 10.5 -1.6 35 6.2 NE 4 9 2 5 1018.3 1016.5 0.0
02/01:00am 14.5 10.6 -1.6 33 6.7 SE 9 13 5 7 1018.3 1016.5 0.0
02/12:30am 15.7 11.6 -0.5 33 7.0 SE 11 15 6 8 1018.4 1016.6 0.0
02/12:00am 15.2 11.0 -0.9 33 6.8 SE 11 15 6 8 1018.4 1016.6 0.0
 
Date/Time
WST
Temp
°C
App
Temp
°C
Dew
Point
Rel
Hum
%
Delta-T
°C
Wind Press
QNH
hPa
Press
MSL
hPa
Rain
since 9 am
mm
Dir
 
Spd
km/h
Gust
km/h
Spd
kts
Gust
kts
01/11:30pm 16.3 11.8 -0.4 32 7.3 SE 13 15 7 8 1018.7 1016.8 0.0
01/11:00pm 15.9 11.8 -0.3 33 7.0 ESE 11 15 6 8 1018.8 1016.9 0.0
01/10:30pm 15.2 11.4 -0.5 34 6.7 E 9 13 5 7 1018.9 1017.0 0.0
01/10:00pm 14.7 11.4 -1.0 34 6.6 ENE 6 7 3 4 1019.0 1017.1 0.0
01/09:30pm 14.3 10.8 -1.3 34 6.5 SE 7 9 4 5 1019.1 1017.2 0.0
01/09:00pm 14.5 11.0 -1.6 33 6.7 ESE 7 9 4 5 1019.0 1017.1 0.0
01/08:30pm 15.1 11.5 -1.9 31 7.1 E 7 11 4 6 1018.8 1016.9 0.0
01/08:00pm 16.2 12.8 -1.8 29 7.6 S 6 7 3 4 1018.4 1016.6 0.0
01/07:30pm 17.7 14.2 -1.5 27 8.3 S 7 9 4 5 1018.0 1016.1 0.0
01/07:00pm 19.3 15.0 -1.7 24 9.1 S 11 11 6 6 1017.8 1015.9 0.0
01/06:30pm 20.4 16.5 -1.4 23 9.6 S 9 11 5 6 1017.4 1015.5 0.0
01/06:00pm 21.7 17.6 -0.3 23 10.0 SSW 11 15 6 8 1017.2 1015.3 0.0
01/05:30pm 22.6 17.7 -0.8 21 10.6 SSW 15 20 8 11 1016.8 1014.9 0.0
01/05:00pm 23.2 18.0 0.3 22 10.7 SSW 17 22 9 12 1016.5 1014.6 0.0
01/04:30pm 23.6 18.9 0.7 22 10.8 SSW 15 20 8 11 1016.4 1014.5 0.0
01/04:00pm 23.3 18.1 -0.2 21 10.9 SSW 17 24 9 13 1016.4 1014.5 0.0
01/03:30pm 23.6 18.4 0.0 21 11.0 S 17 28 9 15 1016.4 1014.5 0.0
01/03:00pm 23.4 18.6 0.5 22 10.7 S 15 26 8 14 1016.4 1014.5 0.0
01/02:30pm 22.9 17.8 0.7 23 10.4 SSW 17 26 9 14 1016.7 1014.8 0.0
01/02:00pm 22.6 18.5 2.1 26 9.8 SSW 13 24 7 13 1017.0 1015.1 0.0
01/01:30pm 23.6 19.0 3.5 27 10.0 SSW 17 32 9 17 1017.2 1015.3 0.0
01/01:00pm 22.9 19.1 3.9 29 9.4 SSW 13 24 7 13 1017.7 1015.8 0.0
01/12:30pm 21.6 16.9 3.3 30 8.9 S 17 28 9 15 1018.0 1016.1 0.0
01/12:00pm 20.9 15.9 3.6 32 8.4 SSW 19 26 10 14 1018.4 1016.6 0.0
01/11:30am 20.7 16.0 3.4 32 8.4 SSE 17 26 9 14 1019.1 1017.2 0.0
01/11:00am 20.3 16.8 3.5 33 8.1 SSW 11 26 6 14 1019.4 1017.5 0.0
01/10:30am 19.7 16.3 4.2 36 7.6 SE 11 19 6 10 1019.7 1017.8 0.0
01/10:00am 18.9 13.9 3.5 36 7.4 S 19 24 10 13 1020.0 1018.1 0.0
01/09:30am 18.5 13.9 3.6 37 7.2 SSE 17 24 9 13 1020.2 1018.3 0.0
01/09:00am 18.0 13.1 3.9 39 6.8 SE 19 28 10 15 1020.3 1018.5 0.0
01/08:30am 17.4 12.2 3.7 40 6.5 SE 20 28 11 15 1020.1 1018.2 0.0
01/08:00am 16.8 12.2 3.5 41 6.3 SE 17 22 9 12 1019.9 1018.0 0.0
01/07:30am 15.0 12.3 2.9 44 5.6 S 6 9 3 5 1019.7 1018.3 0.0
01/07:00am 12.3 10.7 2.2 50 4.5 CALM 0 2 0 1 1019.5 1018.1 0.0
01/06:30am 9.8 7.7 1.5 56 3.5 SE 2 6 1 3 1019.4 1018.0 0.0
01/06:00am 11.6 8.1 1.0 48 4.5 SSW 9 9 5 5 1019.1 1017.7 0.0
01/05:30am 12.4 9.4 2.0 49 4.6 SSW 7 9 4 5 1018.9 1017.5 0.0
01/05:00am 13.9 10.1 1.9 44 5.3 S 11 11 6 6 1018.3 1017.0 0.0
01/04:30am 13.9 10.1 1.5 43 5.5 S 11 11 6 6 1018.1 1016.8 0.0
01/04:00am 14.9 11.9 1.8 41 5.9 S 7 11 4 6 1017.9 1016.6 0.0
01/03:30am 15.7 12.2 1.4 38 6.4 SSW 9 15 5 8 1017.8 1016.5 0.0
01/03:00am 16.4 13.0 1.7 37 6.7 SSW 9 17 5 9 1017.7 1016.3 0.0
01/02:30am 16.5 13.2 2.2 38 6.6 SSW 9 17 5 9 1017.7 1016.3 0.0
01/02:00am 16.5 13.7 2.2 38 6.6 S 6 7 3 4 1017.8 1016.5 0.0
01/01:30am 17.8 14.1 2.2 35 7.2 SSW 11 17 6 9 1017.7 1016.3 0.0
01/01:00am 18.3 14.3 2.6 35 7.4 SW 13 20 7 11 1017.7 1016.3 0.0
01/12:30am 18.6 15.1 3.3 36 7.3 SW 11 19 6 10 1017.8 1016.5 0.0
01/12:00am 19.1 15.6 3.7 36 7.4 SSW 11 17 6 9 1017.7 1016.3 0.0
 
Date/Time
WST
Temp
°C
App
Temp
°C
Dew
Point
Rel
Hum
%
Delta-T
°C
Wind Press
QNH
hPa
Press
MSL
hPa
Rain
since 9 am
mm
Dir
 
Spd
km/h
Gust
km/h
Spd
kts
Gust
kts
31/11:30pm 19.3 15.5 3.9 36 7.5 SW 13 17 7 9 1017.7 1016.3 0.0
31/11:00pm 19.8 15.2 3.9 35 7.7 SSW 17 22 9 12 1017.7 1016.3 0.0
31/10:30pm 20.2 16.5 4.3 35 7.8 SW 13 17 7 9 1017.9 1016.6 0.0
31/10:00pm 20.7 17.0 4.3 34 8.1 SSW 13 20 7 11 1018.0 1016.7 0.0
31/09:30pm 21.3 16.8 4.4 33 8.4 SSW 17 22 9 12 1017.8 1016.5 0.0
31/09:00pm 21.6 17.9 4.7 33 8.5 SW 13 20 7 11 1017.7 1016.3 0.0
31/08:30pm 22.1 18.0 4.6 32 8.8 SW 15 22 8 12 1017.5 1016.1 0.0
31/08:00pm 22.5 18.4 4.5 31 9.0 SW 15 20 8 11 1017.2 1015.8 0.0
31/07:30pm 23.2 18.8 4.7 30 9.4 SW 17 22 9 12 1016.7 1015.3 0.0
31/07:00pm 23.2 19.8 4.2 29 9.5 WSW 11 13 6 7 1016.4 1015.0 0.0
31/06:30pm 24.0 20.3 4.4 28 9.9 WSW 13 19 7 10 1016.3 1014.9 0.0
31/06:00pm 24.8 20.3 4.0 26 10.5 WSW 17 24 9 13 1016.1 1014.7 0.0
31/05:30pm 25.4 21.0 4.5 26 10.7 SW 17 24 9 13 1015.8 1014.5 0.0
31/05:00pm 25.9 20.9 4.4 25 11.0 WSW 20 28 11 15 1015.6 1014.2 0.0
31/04:30pm 26.6 22.8 3.8 23 11.6 WSW 13 20 7 11 1015.6 1014.2 0.0
31/04:00pm 26.6 21.4 3.8 23 11.6 WSW 20 32 11 17 1015.5 1014.1 0.0
31/03:30pm 27.0 23.2 4.1 23 11.7 W 13 26 7 14 1015.7 1014.4 0.0
31/03:00pm 27.0 23.3 4.7 24 11.6 W 13 20 7 11 1015.8 1014.5 0.0
31/02:30pm 26.8 23.1 4.6 24 11.5 WSW 13 19 7 10 1015.9 1014.6 0.0
31/02:00pm 26.0 21.2 4.5 25 11.0 WSW 19 30 10 16 1016.3 1014.9 0.0
31/01:30pm 26.6 22.4 3.8 23 11.6 NW 15 28 8 15 1016.5 1015.1 0.0
31/01:00pm 25.5 21.0 4.0 25 10.9 WSW 17 28 9 15 1017.0 1015.6 0.0
31/12:30pm 24.8 21.0 4.0 26 10.5 SW 13 24 7 13 1017.3 1015.9 0.0

Other Formats:

Comma delimited format used in spreadsheet applications
http://www.bom.gov.au/fwo/IDW60801/IDW60801.94316.axf

JavaScript Object Notation format (JSON) in row-major order
http://www.bom.gov.au/fwo/IDW60801/IDW60801.94316.json